Latest Weather Observations for Blackwater Airport

IDQ60801

Issued at 9:02 pm EST Wednesday 4 March 2015 (issued every 30 minutes, with the page automatically refreshed every 10 minutes)

About weather observations | Map of weather stations | Latest weather observations for QLD | Other Formats
Station Details ID: 035134 Name: BLACKWATER AIRPORT Lat: -23.60 Lon: 148.81 Height: 192.95 m
Data from the previous 72 hours. | See also: Recent months at Blackwater Airport
Date/Time
EST
Temp
°C
App
Temp
°C
Dew
Point
Rel
Hum
%
Delta-T
°C
Wind Press
QNH
hPa
Press
MSL
hPa
Rain
since 9 am
mm
Dir
 
Spd
km/h
Gust
km/h
Spd
kts
Gust
kts
04/09:00pm 26.1 25.7 16.1 54 6.2 NE 13 15 7 8 1012.3 1011.2 0.0
04/08:30pm 27.2 26.7 15.9 50 7.0 ENE 13 17 7 9 1011.9 1010.8 0.0
04/08:00pm 27.8 27.1 15.5 47 7.6 E 13 17 7 9 1011.5 1010.3 0.0
04/07:30pm 28.8 27.7 15.3 43 8.3 E 15 19 8 10 1011.1 1009.9 0.0
04/07:00pm 29.1 28.2 14.9 42 8.7 ENE 13 17 7 9 1010.8 1009.6 0.0
04/06:30pm 30.4 29.4 14.5 38 9.7 ENE 13 15 7 8 1010.4 1009.2 0.0
04/06:00pm 32.3 31.1 14.0 33 11.2 NE 13 19 7 10 1010.1 1008.9 0.0
04/05:30pm 33.3 32.2 14.4 32 11.7 ENE 13 19 7 10 1009.9 1008.7 0.0
04/05:00pm 33.7 32.6 14.2 30 12.1 NNE 13 20 7 11 1009.8 1008.6 0.0
04/04:30pm 34.1 32.6 14.1 30 12.3 NE 15 24 8 13 1009.9 1008.7 0.0
04/04:00pm 34.3 33.0 13.7 29 12.7 ENE 13 24 7 13 1010.2 1009.0 0.0
04/03:30pm 34.2 33.3 13.6 29 12.6 E 11 24 6 13 1010.3 1009.1 0.0
04/03:00pm 34.4 33.3 14.3 30 12.5 E 13 19 7 10 1010.4 1009.2 0.0
04/02:30pm 34.1 33.5 14.6 31 12.1 NE 11 20 6 11 1010.8 1009.6 0.0
04/02:00pm 34.2 34.0 15.6 32 11.7 NE 11 26 6 14 1011.1 1009.9 0.0
04/01:30pm 33.1 31.9 15.1 33 11.2 ENE 15 24 8 13 1011.6 1010.4 0.0
04/01:00pm 32.5 32.3 16.8 39 10.0 E 13 22 7 12 1012.2 1011.1 0.0
04/12:30pm 31.8 30.8 15.7 37 10.1 ENE 15 30 8 16 1012.6 1011.5 0.0
04/12:00pm 31.7 31.8 16.4 39 9.7 E 11 20 6 11 1013.0 1011.9 0.0
04/11:30am 31.2 30.4 17.1 42 9.0 NE 17 28 9 15 1013.6 1012.5 0.0
04/11:00am 30.0 30.0 17.1 46 8.2 ENE 13 20 7 11 1014.1 1012.9 0.0
04/10:30am 28.2 27.9 17.4 52 6.9 E 15 26 8 14 1014.5 1013.3 0.0
04/10:00am 28.6 28.7 18.4 54 6.6 E 15 24 8 13 1014.7 1013.5 0.0
04/09:30am 27.7 27.3 18.1 56 6.1 E 17 24 9 13 1014.6 1013.4 0.0
04/09:00am 27.1 26.3 18.1 58 5.7 ENE 19 30 10 16 1014.7 1013.5 0.0
04/08:30am 26.1 25.1 18.0 61 5.2 E 20 30 11 16 1014.7 1013.5 0.0
04/08:00am 25.0 23.7 18.2 66 4.3 ENE 22 30 12 16 1014.4 1013.2 0.0
04/07:30am 24.2 24.4 18.6 71 3.6 ENE 15 24 8 13 1014.2 1013.0 0.0
04/07:00am 22.9 23.5 19.5 81 2.2 ENE 15 22 8 12 1013.7 1012.6 0.0
04/06:30am 21.4 23.0 19.1 87 1.5 E 9 13 5 7 1013.7 1012.6 0.0
04/06:00am 21.0 22.5 18.8 87 1.4 ESE 9 13 5 7 1013.4 1012.3 0.0
04/05:30am 21.4 22.6 19.0 86 1.5 E 11 13 6 7 1013.2 1012.1 0.0
04/05:00am 21.7 23.3 19.1 85 1.7 ESE 9 13 5 7 1013.0 1011.9 0.0
04/04:30am 22.0 23.3 19.2 84 1.8 SE 11 13 6 7 1012.8 1011.7 0.0
04/04:00am 22.2 23.8 19.2 83 1.9 SE 9 15 5 8 1012.7 1011.6 0.0
04/03:30am 22.3 22.7 19.1 82 2.0 ESE 15 19 8 10 1012.6 1011.5 0.0
04/03:00am 22.6 22.9 18.8 79 2.4 ESE 15 20 8 11 1012.8 1011.7 0.0
04/02:30am 22.2 22.5 18.8 81 2.2 E 15 19 8 10 1013.1 1012.0 0.0
04/02:00am 23.2 22.6 18.9 77 2.7 ENE 20 28 11 15 1013.4 1012.3 0.0
04/01:30am 22.7 23.3 18.7 78 2.5 E 13 19 7 10 1013.6 1012.5 0.0
04/01:00am 23.2 24.2 18.7 76 2.9 E 11 20 6 11 1014.1 1012.9 0.0
04/12:30am 23.5 23.6 18.4 73 3.2 ENE 15 19 8 10 1014.5 1013.3 0.0
04/12:00am 24.1 23.3 18.5 71 3.6 ENE 20 28 11 15 1014.5 1013.3 0.0
 
Date/Time
EST
Temp
°C
App
Temp
°C
Dew
Point
Rel
Hum
%
Delta-T
°C
Wind Press
QNH
hPa
Press
MSL
hPa
Rain
since 9 am
mm
Dir
 
Spd
km/h
Gust
km/h
Spd
kts
Gust
kts
03/11:30pm 24.4 24.4 19.0 72 3.5 ENE 17 24 9 13 1014.6 1013.4 0.0
03/11:00pm 24.7 25.2 19.3 72 3.5 ENE 15 22 8 12 1014.6 1013.4 0.0
03/10:30pm 25.0 24.9 18.7 68 4.0 ENE 17 20 9 11 1014.5 1013.3 0.0
03/10:00pm 26.1 25.2 18.2 61 5.0 ENE 20 30 11 16 1014.2 1013.0 0.0
03/09:30pm 26.1 27.2 17.2 58 5.6 ESE 7 9 4 5 1013.7 1012.6 0.0
03/09:00pm 26.1 26.4 16.9 57 5.8 E 11 15 6 8 1013.4 1012.3 0.0
03/08:30pm 27.1 27.7 16.7 53 6.5 ESE 9 11 5 6 1013.1 1012.0 0.0
03/08:00pm 27.0 27.0 16.3 52 6.7 E 11 15 6 8 1012.7 1011.6 0.0
03/07:30pm 28.0 27.5 16.0 48 7.5 E 13 19 7 10 1012.3 1011.2 0.0
03/07:00pm 29.2 27.5 15.7 44 8.4 E 19 28 10 15 1012.1 1011.0 0.0
03/06:30pm 30.0 28.3 15.7 42 8.9 E 19 24 10 13 1011.8 1010.7 0.0
03/06:00pm 31.2 28.5 15.6 39 9.7 E 24 35 13 19 1011.4 1010.2 0.0
03/05:30pm 32.2 29.5 15.7 37 10.4 E 24 33 13 18 1010.9 1009.7 0.0
03/05:00pm 33.4 30.1 14.0 31 11.9 E 24 35 13 19 1010.6 1009.4 0.0
03/04:30pm 34.1 32.2 15.1 32 11.9 E 19 30 10 16 1010.4 1009.2 0.0
03/04:00pm 34.3 33.9 15.2 31 12.0 NE 11 20 6 11 1010.4 1009.2 0.0
03/03:30pm 33.6 32.2 15.6 34 11.3 NE 17 26 9 14 1010.6 1009.4 0.0
03/03:00pm 33.7 32.3 16.5 35 11.0 ENE 19 30 10 16 1010.8 1009.6 0.0
03/02:30pm 33.7 32.9 17.0 37 10.7 ENE 17 32 9 17 1011.1 1009.9 0.0
03/02:00pm 33.5 32.4 16.4 36 10.9 E 17 30 9 16 1011.7 1010.5 0.0
03/01:30pm 33.2 32.9 16.5 36 10.6 ENE 13 30 7 16 1012.2 1011.1 0.0
03/01:00pm 32.2 31.2 15.7 37 10.4 ENE 15 24 8 13 1012.6 1011.5 0.0
03/12:30pm 31.7 31.0 16.4 39 9.7 E 15 30 8 16 1013.2 1012.1 0.0
03/12:00pm 30.8 30.2 15.6 39 9.5 E 13 20 7 11 1013.7 1012.6 0.0
03/11:30am 31.5 30.6 17.8 44 8.8 E 19 35 10 19 1014.3 1013.1 0.0
03/11:00am 31.0 29.4 16.6 42 9.1 ENE 20 30 11 16 1014.8 1013.6 0.0
03/10:30am 30.3 28.7 17.4 46 8.2 E 22 32 12 17 1015.1 1013.9 0.0
03/10:00am 28.7 27.0 16.3 47 7.8 E 20 28 11 15 1015.2 1014.0 0.0
03/09:30am 29.1 27.9 17.0 48 7.7 E 19 30 10 16 1015.3 1014.1 0.0
03/09:00am 28.2 26.0 16.8 50 7.2 E 24 35 13 19 1015.5 1014.3 0.0
03/08:30am 27.3 25.1 16.9 53 6.5 ENE 24 37 13 20 1015.5 1014.3 0.0
03/08:00am 26.6 25.3 16.8 55 6.1 E 19 28 10 15 1015.2 1014.0 0.0
03/07:30am 25.8 26.0 17.7 61 5.1 E 13 20 7 11 1015.0 1013.8 0.0
03/07:00am 24.7 26.5 18.4 68 4.0 ENE 6 9 3 5 1014.8 1013.6 0.0
03/06:30am 22.8 24.4 18.3 76 2.8 WNW 7 9 4 5 1014.5 1013.3 0.0
03/06:00am 22.8 23.1 17.9 74 3.1 E 13 26 7 14 1014.3 1013.1 0.0
03/05:30am 23.1 22.2 18.2 74 3.1 ENE 20 32 11 17 1013.6 1012.5 0.0
03/05:00am 23.2 22.9 19.6 80 2.3 ENE 20 32 11 17 1013.2 1012.1 0.0
03/04:30am 23.1 23.8 20.4 85 1.8 E 17 22 9 12 1013.2 1012.1 0.0
03/04:00am 23.6 23.6 20.1 81 2.3 ENE 20 26 11 14 1013.0 1011.9 0.0
03/03:30am 23.7 24.3 20.2 81 2.3 ENE 17 24 9 13 1013.0 1011.9 0.0
03/03:00am 23.8 24.9 20.5 82 2.2 ENE 15 20 8 11 1012.9 1011.8 0.0
03/02:30am 24.1 24.4 20.4 80 2.4 E 19 24 10 13 1012.8 1011.7 0.0
03/02:00am 24.2 25.0 20.7 81 2.3 ENE 17 20 9 11 1012.9 1011.8 0.0
03/01:30am 24.4 25.7 20.9 81 2.3 ENE 15 20 8 11 1013.0 1011.9 0.0
03/01:00am 23.9 25.1 20.6 82 2.2 NE 15 20 8 11 1013.1 1012.0 0.0
03/12:30am 24.1 26.5 20.8 82 2.2 NNE 9 11 5 6 1013.2 1012.1 0.0
03/12:00am 24.1 25.5 20.4 80 2.4 NE 13 20 7 11 1013.1 1012.0 0.0
 
Date/Time
EST
Temp
°C
App
Temp
°C
Dew
Point
Rel
Hum
%
Delta-T
°C
Wind Press
QNH
hPa
Press
MSL
hPa
Rain
since 9 am
mm
Dir
 
Spd
km/h
Gust
km/h
Spd
kts
Gust
kts
02/11:30pm 24.5 25.3 20.6 79 2.6 NE 17 30 9 16 1013.1 1012.0 0.0
02/11:00pm 24.7 25.1 20.6 78 2.7 NE 19 28 10 15 1013.0 1011.9 0.0
02/10:30pm 24.8 25.5 20.5 77 2.8 ENE 17 22 9 12 1013.0 1011.9 0.0
02/10:00pm 25.3 24.2 20.3 74 3.3 ENE 26 37 14 20 1012.7 1011.6 0.0
02/09:30pm 25.9 24.2 20.5 72 3.6 ENE 30 43 16 23 1012.3 1011.2 0.0
02/09:00pm 26.5 25.0 20.3 68 4.1 ENE 28 37 15 20 1012.1 1011.0 0.0
02/08:30pm 27.4 24.9 19.7 63 5.0 ENE 32 44 17 24 1011.4 1010.2 0.0
02/08:00pm 28.6 27.1 19.5 58 6.0 ENE 26 39 14 21 1010.8 1009.6 0.0
02/07:30pm 29.6 29.8 20.2 57 6.2 ENE 19 28 10 15 1010.1 1008.9 0.0
02/07:00pm 30.3 30.5 19.3 51 7.2 E 17 22 9 12 1009.6 1008.4 0.0
02/06:30pm 31.3 30.9 19.3 49 7.9 E 20 32 11 17 1009.0 1007.8 0.0
02/06:00pm 32.3 30.8 18.5 44 9.0 E 24 32 13 17 1008.5 1007.4 0.0
02/05:30pm 33.2 31.9 18.2 41 9.8 ENE 22 33 12 18 1008.0 1006.9 0.0
02/05:00pm 33.9 34.0 18.4 40 10.2 E 15 26 8 14 1007.8 1006.7 0.0
02/04:30pm 34.1 33.8 18.2 39 10.4 ENE 17 24 9 13 1007.6 1006.5 0.0
02/04:00pm 34.2 34.3 19.1 41 10.0 E 17 24 9 13 1007.6 1006.5 0.0
02/03:30pm 33.0 34.0 19.5 45 9.0 ESE 13 22 7 12 1007.9 1006.8 0.0
02/03:00pm 32.8 32.6 18.6 43 9.3 E 17 26 9 14 1007.9 1006.8 0.0
02/02:30pm 33.6 33.4 18.5 40 9.9 ENE 17 26 9 14 1008.0 1006.9 0.0
02/02:00pm 33.4 33.3 19.5 44 9.2 E 19 30 10 16 1008.5 1007.4 0.0
02/01:30pm 33.1 33.9 21.3 50 8.0 ENE 19 30 10 16 1009.1 1007.9 0.0
02/01:00pm 31.1 31.4 20.4 53 7.2 ENE 19 33 10 18 1009.7 1008.5 0.0
02/12:30pm 33.0 34.5 19.8 45 8.8 NE 11 19 6 10 1010.0 1008.8 0.0
02/12:00pm 32.2 34.3 20.1 48 8.1 E 9 15 5 8 1010.7 1009.5 0.0
02/11:30am 31.8 34.9 21.0 52 7.3 SW 6 13 3 7 1011.3 1010.1 0.0
02/11:00am 30.9 33.3 20.8 55 6.8 E 9 17 5 9 1011.7 1010.5 0.0
02/10:30am 30.7 33.7 21.2 57 6.4 NNE 7 11 4 6 1011.9 1010.8 0.0
02/10:00am 29.6 32.5 20.7 58 5.9 ENE 6 11 3 6 1012.1 1011.0 0.0
02/09:30am 27.8 30.8 20.9 66 4.6 ENE 6 9 3 5 1012.3 1011.2 0.0
02/09:00am 27.0 30.3 21.5 72 3.7 NE 6 7 3 4 1012.5 1011.4 0.2
02/08:30am 27.1 29.8 20.7 68 4.2 NE 7 13 4 7 1012.2 1011.1 0.2
02/08:00am 26.9 29.9 21.2 71 3.8 NE 7 13 4 7 1012.2 1011.1 0.2
02/07:30am 26.1 28.9 21.5 76 3.1 E 9 13 5 7 1011.9 1010.8 0.2
02/07:00am 24.8 28.0 21.7 83 2.1 ENE 7 9 4 5 1011.6 1010.4 0.2
02/06:30am 23.4 26.7 21.5 89 1.3 ENE 6 9 3 5 1011.5 1010.3 0.2
02/06:00am 23.1 26.1 21.2 89 1.3 ENE 7 7 4 4 1010.7 1009.5 0.2
02/05:30am 23.1 26.1 21.2 89 1.3 NE 7 9 4 5 1010.2 1009.0 0.2
02/05:00am 23.5 26.6 21.4 88 1.4 ENE 7 9 4 5 1009.8 1008.6 0.2
02/04:30am 23.7 25.9 21.2 86 1.7 NE 11 13 6 7 1009.3 1008.1 0.2
02/04:00am 24.0 26.3 21.3 85 1.8 NE 11 15 6 8 1009.1 1007.9 0.2
02/03:30am 24.2 26.2 21.5 85 1.8 NE 13 19 7 10 1009.0 1007.8 0.2
02/03:00am 24.2 26.1 21.3 84 1.9 NE 13 15 7 8 1009.0 1007.8 0.2
02/02:30am 24.5 26.7 21.2 82 2.2 NE 11 15 6 8 1009.1 1007.9 0.2
02/02:00am 24.7 25.8 21.2 81 2.3 NE 17 24 9 13 1009.1 1007.9 0.2
02/01:30am 24.8 25.9 21.3 81 2.3 NE 17 24 9 13 1009.5 1008.3 0.2
02/01:00am 25.0 25.5 21.1 79 2.6 NE 20 28 11 15 1009.5 1008.3 0.2
02/12:30am 25.3 25.8 21.2 78 2.7 NE 20 32 11 17 1009.7 1008.5 0.2
02/12:00am 25.6 26.3 21.5 78 2.7 NNE 20 28 11 15 1009.7 1008.5 0.2
 
Date/Time
EST
Temp
°C
App
Temp
°C
Dew
Point
Rel
Hum
%
Delta-T
°C
Wind Press
QNH
hPa
Press
MSL
hPa
Rain
since 9 am
mm
Dir
 
Spd
km/h
Gust
km/h
Spd
kts
Gust
kts
01/11:30pm 25.9 26.8 21.6 77 2.9 NNE 19 26 10 14 1009.7 1008.5 0.2
01/11:00pm 26.4 27.2 21.4 74 3.3 NNE 19 28 10 15 1009.6 1008.4 0.2
01/10:30pm 26.8 27.9 20.4 68 4.2 NNE 15 20 8 11 1009.5 1008.3 0.2
01/10:00pm 27.9 28.5 20.2 63 5.1 ENE 17 24 9 13 1009.6 1008.4 0.2
01/09:30pm 28.2 29.3 19.7 60 5.6 ENE 13 22 7 12 1009.3 1008.1 0.2

Other Formats:

Comma delimited format used in spreadsheet applications
http://www.bom.gov.au/fwo/IDQ60801/IDQ60801.94398.axf

JavaScript Object Notation format (JSON) in row-major order
http://www.bom.gov.au/fwo/IDQ60801/IDQ60801.94398.json